Lafleche, Canada
Current Conditions -  °F | °C
As of 10:00 PM on Wednesday 17 Dec 2014 (Local Time) from CYYN Reporting Station
Overcast Overcast  
Wind Chill:   Ceiling: 300
Heat Index: 21°   Visibility: 7mi
Dew Point: 19°   Wind: 16mph
Humidity: 93%   Direction: 200°SSW
Pressure: 29.88"   Gusts: 22mph
Location:  49.7°N, 106.57°W
Report Text: CYYN 180400Z AUTO 20014G19KT 7SM OVC003 M06/M07 A2988 RMK SLP165
Loading
Personal Weather Stations






























Interactive Weather Map New forecast layout! Learn more

10-Day Weather Forecast

Advertisements
Track Severe Weather on mobile